Terminal Aerodrome Forecast
Issued by NWS

Home | Current Version | Previous Version | Text Only | Print | Product List | Glossary On
Versions: 1 2 3 4 5 6 7 8 9 10 11 12 13 14 15 16 17 18 19 20 21 22 23 24 25 26 27 28 29 30 31 32 33 34
859
FTUS44 KFWD 190527
TAFGKY
TAF
KGKY 190527Z 1906/2006 16012KT P6SM VCSH SCT020 BKN050
      TEMPO 1906/1907 3SM BR SCT006
     FM190900 18017KT P6SM VCSH OVC015
      TEMPO 1910/1913 -SHRA BKN009
     FM191600 19018KT P6SM VCSH BKN025
     FM192000 18016G26KT P6SM VCTS SCT030 BKN045CB
     FM200000 16016KT P6SM OVC015=

USA.gov is the U.S. government's official web portal to all federal, state and local government web resources and services.